Time;durP1;ratioP1;P1;durP2;ratioP2;P2;SDS_P1;SDS_P2;PMS_P1;PMS_P2;Temp;Humidity;BMP_temperature;BMP_pressure;BME280_temperature;BME280_humidity;BME280_pressure;Samples;Min_cycle;Max_cycle;Signal;HPM_P1;HPM_P2
2021/09/04 00:00:01;;;;;;;;;;;;;;;;;;2065480;28;100032;-24
2021/09/04 00:01:06;;;;;;;;;;;;;;;;;;2066584;28;100127;-19
2021/09/04 00:02:11;;;;;;;;;;;;;;;;;;2074228;28;99947;-20
2021/09/04 00:03:12;;;;;;;;;;;;;;;;;;2074552;28;99958;-18
2021/09/04 00:04:14;;;;;;;;;;;;;;;;;;2074570;28;99922;-18
2021/09/04 00:05:14;;;;;;;;;;;;;;;;;;2074609;28;100357;-18
2021/09/04 00:06:15;;;;;;;;;;;;;;;;;;2065626;28;100053;-19
2021/09/04 00:07:16;;;;;;;;;;;;;;;;;;2064969;28;100085;-19
2021/09/04 00:08:17;;;;;;;;;;;;;;;;;;2074188;28;100049;-19
2021/09/04 00:09:18;;;;;;;;;;;;;;;;;;2056135;28;100109;-19
2021/09/04 00:10:28;;;;;;;;;;;;;;;;;;2059848;28;100190;-18
2021/09/04 09:10:44;;;;;;;11.13;7.20;;;;;;;;;;2081673;28;99889;-15
2021/09/04 09:11:48;;;;;;;9.00;6.43;;;;;;;;;;2080786;27;100356;-17
2021/09/04 09:12:50;;;;;;;10.70;6.80;;;;;;;;;;2080729;27;99983;-17
2021/09/04 09:13:53;;;;;;;9.13;6.20;;;;;;;;;;2080107;28;99925;-16
2021/09/04 09:14:57;;;;;;;10.32;6.40;;;;;;;;;;2080211;28;100171;-14
2021/09/04 09:15:58;;;;;;;11.23;6.60;;;;;;;;;;2080388;28;100065;-16
2021/09/04 09:17:01;;;;;;;8.75;6.13;;;;;;;;;;2080301;27;100247;-17
2021/09/04 09:18:11;;;;;;;14.50;6.93;;;;;;;;;;2080878;27;100439;-17
2021/09/04 09:19:12;;;;;;;7.05;6.13;;;;;;;;;;2080694;27;99996;-16
2021/09/04 09:20:15;;;;;;;;;;;;;;;;;;2081214;27;99960;-15
2021/09/04 09:21:15;;;;;;;9.55;6.53;;;;;;;;;;2080471;27;100000;-17
2021/09/04 09:22:17;;;;;;;;;;;;;;;;;;2080952;27;101852;-15
2021/09/04 09:23:19;;;;;;;;;;;;;;;;;;2081236;28;100016;-15
2021/09/04 09:24:21;;;;;;;12.27;6.35;;;;;;;;;;2080683;27;100027;-16
2021/09/04 09:25:22;;;;;;;8.88;5.38;;;;;;;;;;2080065;28;100150;-15
2021/09/04 09:26:28;;;;;;;7.78;5.55;;;;;;;;;;2080035;28;100077;-17
2021/09/04 09:27:29;;;;;;;11.25;6.18;;;;;;;;;;2079687;27;99947;-15
2021/09/04 09:28:30;;;;;;;;;;;;;;;;;;2079551;28;100151;-17
2021/09/04 09:29:33;;;;;;;9.05;5.35;;;;;;;;;;2070473;28;100065;-15
2021/09/04 09:30:38;;;;;;;8.38;5.68;;;;;;;;;;2079550;28;99982;-15
2021/09/04 09:31:39;;;;;;;7.65;5.72;;;;;;;;;;2079092;28;100056;-15
2021/09/04 09:32:53;;;;;;;10.25;5.78;;;;;;;;;;2071216;28;100083;-16
2021/09/04 09:34:09;;;;;;;8.23;5.30;;;;;;;;;;2070503;28;99996;-15
2021/09/04 09:35:12;;;;;;;7.85;6.00;;;;;;;;;;2073713;28;100047;-17
2021/09/04 09:36:13;;;;;;;8.85;6.28;;;;;;;;;;2080305;27;99957;-16
2021/09/04 09:37:15;;;;;;;8.57;5.75;;;;;;;;;;2079452;28;100356;-16
2021/09/04 09:38:18;;;;;;;6.20;5.43;;;;;;;;;;2079481;28;100105;-17
2021/09/04 09:39:23;;;;;;;6.45;5.22;;;;;;;;;;2080334;27;100092;-14
2021/09/04 09:40:24;;;;;;;9.88;5.68;;;;;;;;;;2079118;28;100135;-16
2021/09/04 09:41:25;;;;;;;10.82;5.63;;;;;;;;;;2079555;28;100193;-16
2021/09/04 09:42:26;;;;;;;;;;;;;;;;;;2080044;28;100020;-15
2021/09/04 09:43:32;;;;;;;8.27;5.75;;;;;;;;;;2080034;28;100097;-15
2021/09/04 09:44:35;;;;;;;8.60;5.47;;;;;;;;;;2080444;27;99908;-14
2021/09/04 09:45:39;;;;;;;8.25;5.32;;;;;;;;;;2079837;27;100566;-15
2021/09/04 09:46:54;;;;;;;7.07;5.45;;;;;;;;;;2071945;28;99993;-15
2021/09/04 09:47:55;;;;;;;8.73;5.10;;;;;;;;;;2073724;28;99988;-16
2021/09/04 09:48:56;;;;;;;;;;;;;;;;;;2072604;28;100139;-15
2021/09/04 09:49:57;;;;;;;8.10;5.78;;;;;;;;;;2079883;28;100129;-17
2021/09/04 09:51:09;;;;;;;7.22;5.28;;;;;;;;;;2080847;27;100008;-14
2021/09/04 09:52:13;;;;;;;6.63;5.20;;;;;;;;;;2080621;28;99937;-14
2021/09/04 09:53:14;;;;;;;8.48;5.85;;;;;;;;;;2080677;27;99938;-17
2021/09/04 09:54:15;;;;;;;7.03;5.30;;;;;;;;;;2080469;27;100430;-16
2021/09/04 09:55:15;;;;;;;;;;;;;;;;;;2081296;27;99828;-15
2021/09/04 09:56:17;;;;;;;8.90;5.30;;;;;;;;;;2080255;27;99990;-17
2021/09/04 09:57:19;;;;;;;6.55;5.40;;;;;;;;;;2079911;28;100034;-17
2021/09/04 09:58:22;;;;;;;8.13;5.10;;;;;;;;;;2079538;28;99988;-17
2021/09/04 09:59:28;;;;;;;8.80;5.70;;;;;;;;;;2080517;28;99929;-16
2021/09/04 10:00:30;;;;;;;7.95;5.60;;;;;;;;;;2080421;28;100047;-16
2021/09/04 10:01:32;;;;;;;9.18;5.32;;;;;;;;;;2080271;28;99931;-15
2021/09/04 10:02:34;;;;;;;6.38;5.38;;;;;;;;;;2080444;27;99941;-17
2021/09/04 10:03:37;;;;;;;10.13;5.95;;;;;;;;;;2079846;28;100303;-15
2021/09/04 10:04:40;;;;;;;6.32;4.90;;;;;;;;;;2079696;28;100226;-16
2021/09/04 10:05:42;;;;;;;8.15;4.78;;;;;;;;;;2080040;28;99941;-17
2021/09/04 10:06:43;;;;;;;7.30;5.25;;;;;;;;;;2071512;28;99920;-16
2021/09/04 10:07:47;;;;;;;7.35;5.28;;;;;;;;;;2080031;28;100025;-15
2021/09/04 10:08:48;;;;;;;7.85;5.60;;;;;;;;;;2071190;28;100301;-17
2021/09/04 10:09:50;;;;;;;7.78;5.72;;;;;;;;;;2071136;28;100043;-17
2021/09/04 10:10:51;;;;;;;8.93;4.82;;;;;;;;;;2079850;27;100019;-17
2021/09/04 10:11:52;;;;;;;7.97;5.32;;;;;;;;;;2074339;28;100153;-15
2021/09/04 10:12:57;;;;;;;7.10;5.68;;;;;;;;;;2073811;28;100924;-14
2021/09/04 10:14:10;;;;;;;9.15;5.18;;;;;;;;;;2074697;28;100342;-17
2021/09/04 10:15:11;;;;;;;9.75;5.25;;;;;;;;;;2074561;28;100214;-17
2021/09/04 10:16:12;;;;;;;5.75;4.90;;;;;;;;;;2075057;28;99897;-17
2021/09/04 10:17:13;;;;;;;7.00;4.95;;;;;;;;;;2074450;28;100046;-18
2021/09/04 10:18:15;;;;;;;8.63;5.40;;;;;;;;;;2074963;28;99947;-15
2021/09/04 10:19:17;;;;;;;6.93;5.43;;;;;;;;;;2074214;28;100071;-15
2021/09/04 10:20:20;;;;;;;10.88;5.40;;;;;;;;;;2074452;28;100016;-17
2021/09/04 10:21:21;;;;;;;6.95;5.25;;;;;;;;;;2065651;28;100492;-16
2021/09/04 10:22:21;;;;;;;;;;;;;;;;;;2066313;28;100880;-17
2021/09/04 10:23:37;;;;;;;7.93;5.43;;;;;;;;;;2074098;28;100040;-17
2021/09/04 10:24:54;;;;;;;7.53;5.32;;;;;;;;;;2074525;28;100059;-17
2021/09/04 10:25:55;;;;;;;6.68;4.82;;;;;;;;;;2074495;28;100036;-14
2021/09/04 10:26:59;;;;;;;;;;;;;;;;;;2075427;28;100046;-17
2021/09/04 10:28:01;;;;;;;7.05;4.75;;;;;;;;;;2075079;28;100511;-16
2021/09/04 10:29:07;;;;;;;6.25;5.18;;;;;;;;;;2074967;28;100151;-17
2021/09/04 10:30:33;;;;;;;5.80;4.55;;;;;;;;;;2074797;28;100226;-16
2021/09/04 10:31:46;;;;;;;9.20;5.60;;;;;;;;;;2074302;28;99942;-16
2021/09/04 10:32:56;;;;;;;6.93;5.00;;;;;;;;;;2074059;28;100015;-17
2021/09/04 10:34:13;;;;;;;7.78;5.18;;;;;;;;;;2074555;28;100110;-14
2021/09/04 10:35:14;;;;;;;7.07;4.90;;;;;;;;;;2074049;28;99906;-16
2021/09/04 10:36:15;;;;;;;;;;;;;;;;;;2074038;28;100019;-16
2021/09/04 10:37:18;;;;;;;6.65;4.82;;;;;;;;;;2074225;28;100025;-17
2021/09/04 10:38:19;;;;;;;7.68;5.30;;;;;;;;;;2073556;28;100107;-17
2021/09/04 10:39:22;;;;;;;7.40;5.03;;;;;;;;;;2060101;28;100129;-16
2021/09/04 10:40:37;;;;;;;6.75;4.93;;;;;;;;;;2073543;28;100028;-16
2021/09/04 10:41:38;;;;;;;6.45;4.53;;;;;;;;;;2077016;28;100048;-15
2021/09/04 10:42:41;;;;;;;5.75;4.85;;;;;;;;;;2076335;28;100093;-16
2021/09/04 10:43:44;;;;;;;5.50;4.85;;;;;;;;;;2074868;28;100466;-17
2021/09/04 10:44:47;;;;;;;6.72;5.18;;;;;;;;;;2074316;28;100008;-15
2021/09/04 10:45:50;;;;;;;8.23;5.20;;;;;;;;;;2075774;28;100799;-16
2021/09/04 10:46:52;;;;;;;8.13;5.00;;;;;;;;;;2075024;28;100088;-16
2021/09/04 10:47:56;;;;;;;7.97;5.13;;;;;;;;;;2073500;28;99984;-17
2021/09/04 10:48:59;;;;;;;6.07;4.90;;;;;;;;;;2073925;28;100218;-23
2021/09/04 10:50:18;;;;;;;6.65;5.25;;;;;;;;;;2074456;28;100096;-17
2021/09/04 10:51:19;;;;;;;5.93;5.03;;;;;;;;;;2079967;27;101427;-15
2021/09/04 10:52:38;;;;;;;;;;;;;;;;;;2091263;27;100424;-17
2021/09/04 10:53:45;;;;;;;6.95;5.30;;;;;;;;;;2082659;27;100052;-16
2021/09/04 10:55:04;;;;;;;8.07;4.65;;;;;;;;;;2077188;28;100262;-17
2021/09/04 10:56:28;;;;;;;8.25;5.60;;;;;;;;;;2074594;28;99944;-17
2021/09/04 10:57:45;;;;;;;5.47;4.88;;;;;;;;;;2073606;28;100122;-14
2021/09/04 10:58:46;;;;;;;6.78;4.97;;;;;;;;;;2073797;28;100017;-17
2021/09/04 11:00:01;;;;;;;6.80;4.93;;;;;;;;;;2074178;28;100025;-16
2021/09/04 11:01:05;;;;;;;6.07;4.63;;;;;;;;;;2072688;28;100031;-17
2021/09/04 11:02:06;;;;;;;7.38;5.00;;;;;;;;;;2067932;28;101829;-15
2021/09/04 11:03:08;;;;;;;;;;;;;;;;;;2072765;28;100575;-15
2021/09/04 11:04:09;;;;;;;7.18;4.63;;;;;;;;;;2072933;28;100014;-16
2021/09/04 11:05:40;;;;;;;7.15;5.25;;;;;;;;;;2073127;28;99989;-16
2021/09/04 11:06:49;;;;;;;7.70;4.97;;;;;;;;;;2073174;28;100150;-15
2021/09/04 11:08:01;;;;;;;6.32;4.65;;;;;;;;;;2072969;28;100847;-16
2021/09/04 11:09:02;;;;;;;6.72;5.15;;;;;;;;;;2074073;28;99843;-15
2021/09/04 11:10:22;;;;;;;5.93;4.65;;;;;;;;;;2073959;28;99894;-16
2021/09/04 11:11:37;;;;;;;6.18;4.72;;;;;;;;;;2074058;28;100201;-15
2021/09/04 11:12:38;;;;;;;10.05;4.93;;;;;;;;;;2064873;28;100142;-16
2021/09/04 11:13:39;;;;;;;;;;;;;;;;;;2073758;28;100430;-16
2021/09/04 11:14:45;;;;;;;6.53;4.40;;;;;;;;;;2083877;27;100292;-15
2021/09/04 11:15:48;;;;;;;7.15;4.43;;;;;;;;;;2067532;28;100087;-17
2021/09/04 11:16:49;;;;;;;6.15;5.03;;;;;;;;;;2072235;28;100189;-16
2021/09/04 11:17:50;;;;;;;10.30;5.35;;;;;;;;;;2069734;28;99786;-17
2021/09/04 11:18:51;;;;;;;7.03;4.57;;;;;;;;;;2071205;28;99912;-17
2021/09/04 11:19:52;;;;;;;9.10;5.18;;;;;;;;;;2073530;28;100379;-15
2021/09/04 11:20:53;;;;;;;;;;;;;;;;;;2074424;28;100000;-17
2021/09/04 11:22:06;;;;;;;7.93;4.65;;;;;;;;;;2074058;28;99894;-16
2021/09/04 11:23:09;;;;;;;8.68;4.68;;;;;;;;;;2072342;28;100033;-17
2021/09/04 11:24:11;;;;;;;6.78;4.70;;;;;;;;;;2069636;28;102244;-17
2021/09/04 11:25:12;;;;;;;7.07;4.88;;;;;;;;;;2070802;28;101871;-16
2021/09/04 11:26:13;;;;;;;6.78;4.60;;;;;;;;;;2072959;28;100127;-17
2021/09/04 11:27:14;;;;;;;;;;;;;;;;;;2073934;28;100058;-16
2021/09/04 11:28:29;;;;;;;7.45;4.60;;;;;;;;;;2072516;28;100067;-17
2021/09/04 11:29:47;;;;;;;10.50;5.30;;;;;;;;;;2070699;28;99963;-16
2021/09/04 11:30:49;;;;;;;8.07;4.80;;;;;;;;;;2072277;28;100455;-17
2021/09/04 11:31:51;;;;;;;;;;;;;;;;;;2062779;28;99953;-17
2021/09/04 11:32:52;;;;;;;8.27;5.75;;;;;;;;;;2066195;28;100036;-16
2021/09/04 11:33:57;;;;;;;8.35;5.75;;;;;;;;;;2073167;28;99969;-17
2021/09/04 11:35:00;;;;;;;7.43;4.68;;;;;;;;;;2073856;28;99940;-17
2021/09/04 11:36:01;;;;;;;6.68;5.15;;;;;;;;;;2073716;28;99983;-17
2021/09/04 11:37:22;;;;;;;;;;;;;;;;;;2073786;28;100474;-17
2021/09/04 11:38:26;;;;;;;9.20;4.90;;;;;;;;;;2072774;28;100972;-17
2021/09/04 11:39:36;;;;;;;6.60;4.90;;;;;;;;;;2073731;28;100047;-17
2021/09/04 11:40:37;;;;;;;5.25;4.72;;;;;;;;;;2073830;28;99941;-15
2021/09/04 11:41:45;;;;;;;7.80;5.28;;;;;;;;;;2073586;28;100108;-14
2021/09/04 11:42:48;;;;;;;6.25;5.00;;;;;;;;;;2073530;28;99947;-17
2021/09/04 11:43:49;;;;;;;5.07;4.35;;;;;;;;;;2074082;28;100081;-16
2021/09/04 11:44:51;;;;;;;;;;;;;;;;;;2073377;28;100293;-16
2021/09/04 11:46:03;;;;;;;8.18;5.38;;;;;;;;;;2065168;28;99957;-16
2021/09/04 11:47:05;;;;;;;7.43;5.03;;;;;;;;;;2064559;28;100108;-18
2021/09/04 11:48:08;;;;;;;6.65;4.70;;;;;;;;;;2065362;28;100017;-15
2021/09/04 11:49:09;;;;;;;5.75;4.40;;;;;;;;;;2072555;28;100513;-17
2021/09/04 11:50:10;;;;;;;;;;;;;;;;;;2066287;28;100285;-15
2021/09/04 11:51:11;;;;;;;6.97;4.45;;;;;;;;;;2065612;28;99977;-14
2021/09/04 11:52:16;;;;;;;;;;;;;;;;;;2066476;28;99759;-15
2021/09/04 11:53:17;;;;;;;7.65;5.05;;;;;;;;;;2069414;28;100096;-18
2021/09/04 11:54:26;;;;;;;;;;;;;;;;;;2074149;28;100056;-16
2021/09/04 11:55:29;;;;;;;13.45;7.38;;;;;;;;;;2073680;28;100090;-15
2021/09/04 11:56:32;;;;;;;9.30;6.90;;;;;;;;;;2074004;28;100001;-16
2021/09/04 11:57:34;;;;;;;10.82;7.22;;;;;;;;;;2073698;28;99837;-17
2021/09/04 11:58:35;;;;;;;11.68;7.47;;;;;;;;;;2074370;28;99933;-14
2021/09/04 11:59:55;;;;;;;;;;;;;;;;;;2073624;28;100069;-17
2021/09/04 12:01:03;;;;;;;46.60;12.55;;;;;;;;;;2073037;28;100052;-16
2021/09/04 12:02:06;;;;;;;16.85;8.32;;;;;;;;;;2073391;28;99947;-16
2021/09/04 12:03:12;;;;;;;19.42;8.73;;;;;;;;;;2074122;28;100063;-17
2021/09/04 12:04:14;;;;;;;23.50;9.45;;;;;;;;;;2073649;28;100330;-16
2021/09/04 12:05:17;;;;;;;26.27;9.65;;;;;;;;;;2074258;28;99936;-17
2021/09/04 12:06:18;;;;;;;14.88;7.22;;;;;;;;;;2073749;28;100055;-17
2021/09/04 12:07:23;;;;;;;13.85;6.50;;;;;;;;;;2072814;28;100065;-16
2021/09/04 12:08:27;;;;;;;13.10;6.53;;;;;;;;;;2064862;28;100047;-16
2021/09/04 12:09:28;;;;;;;11.73;6.25;;;;;;;;;;2073084;28;100332;-15
2021/09/04 12:10:33;;;;;;;12.18;6.05;;;;;;;;;;2073322;28;100116;-17
2021/09/04 12:11:34;;;;;;;9.30;6.03;;;;;;;;;;2074081;28;99901;-17
2021/09/04 12:12:35;;;;;;;;;;;;;;;;;;2074359;28;100034;-16
2021/09/04 12:13:36;;;;;;;10.18;5.82;;;;;;;;;;2090189;27;100084;-16
2021/09/04 12:14:38;;;;;;;8.00;5.43;;;;;;;;;;2089466;27;100131;-18
2021/09/04 12:15:39;;;;;;;8.80;5.60;;;;;;;;;;2073918;28;100073;-16
2021/09/04 12:16:40;;;;;;;11.00;5.72;;;;;;;;;;2073354;28;99960;-16
2021/09/04 12:17:57;;;;;;;;;;;;;;;;;;2073696;28;100080;-16
2021/09/04 12:19:16;;;;;;;9.73;5.70;;;;;;;;;;2073495;28;100416;-17
2021/09/04 12:20:17;;;;;;;9.15;5.75;;;;;;;;;;2073764;28;99909;-18
2021/09/04 12:21:18;;;;;;;9.85;6.13;;;;;;;;;;2073539;28;99959;-16
2021/09/04 12:22:32;;;;;;;8.85;5.43;;;;;;;;;;2073853;28;100032;-17
2021/09/04 12:23:33;;;;;;;12.15;5.78;;;;;;;;;;2073259;28;99951;-17
2021/09/04 12:24:34;;;;;;;9.63;5.80;;;;;;;;;;2072952;28;100031;-16
2021/09/04 12:25:34;;;;;;;;;;;;;;;;;;2074222;28;100199;-18
2021/09/04 12:26:35;;;;;;;6.38;5.45;;;;;;;;;;2072987;28;100072;-16
2021/09/04 12:27:40;;;;;;;11.93;6.43;;;;;;;;;;2073093;28;100037;-17
2021/09/04 12:28:41;;;;;;;9.90;5.47;;;;;;;;;;2073546;28;99933;-16
2021/09/04 12:29:42;;;;;;;7.63;4.93;;;;;;;;;;2089245;27;99985;-17
2021/09/04 12:31:09;;;;;;;12.77;5.60;;;;;;;;;;2081693;27;99999;-23
2021/09/04 12:32:12;;;;;;;7.95;5.20;;;;;;;;;;2070912;28;99967;-16
2021/09/04 12:33:13;;;;;;;9.55;5.78;;;;;;;;;;2073453;28;100031;-18
2021/09/04 12:34:20;;;;;;;9.18;5.40;;;;;;;;;;2073200;28;100050;-17
2021/09/04 12:35:21;;;;;;;10.65;5.60;;;;;;;;;;2073206;28;100784;-15
2021/09/04 12:36:28;;;;;;;;;;;;;;;;;;2073899;28;99892;-18
2021/09/04 12:37:32;;;;;;;9.70;6.22;;;;;;;;;;2070809;28;100004;-16
2021/09/04 12:38:42;;;;;;;9.55;5.28;;;;;;;;;;2073529;28;100148;-16
2021/09/04 12:39:43;;;;;;;9.07;5.50;;;;;;;;;;2074337;28;99941;-15
2021/09/04 12:41:17;;;;;;;8.82;5.32;;;;;;;;;;2074500;28;100223;-15
2021/09/04 12:42:18;;;;;;;7.25;5.20;;;;;;;;;;2068031;28;100150;-17
2021/09/04 12:43:19;;;;;;;9.30;5.28;;;;;;;;;;2072611;27;100315;-18
2021/09/04 12:44:20;;;;;;;;;;;;;;;;;;2074781;27;99932;-16
2021/09/04 12:45:21;;;;;;;9.68;5.32;;;;;;;;;;2072813;28;100230;-15
2021/09/04 12:46:30;;;;;;;9.73;5.85;;;;;;;;;;2065624;28;99999;-17
2021/09/04 12:47:47;;;;;;;10.48;5.78;;;;;;;;;;2065381;28;100092;-15
2021/09/04 12:48:48;;;;;;;9.73;5.53;;;;;;;;;;2072801;28;100078;-18
2021/09/04 12:49:49;;;;;;;;;;;;;;;;;;2073895;28;100169;-17
2021/09/04 12:51:10;;;;;;;9.45;5.32;;;;;;;;;;2073325;28;100473;-17
2021/09/04 12:52:13;;;;;;;7.57;5.53;;;;;;;;;;2072969;28;100063;-16
2021/09/04 12:53:14;;;;;;;7.05;4.90;;;;;;;;;;2071805;28;101819;-18
2021/09/04 12:54:15;;;;;;;8.70;5.70;;;;;;;;;;2073171;28;100158;-18
2021/09/04 12:55:16;;;;;;;;;;;;;;;;;;2074752;28;100263;-16
2021/09/04 12:56:43;;;;;;;8.88;5.60;;;;;;;;;;2070050;28;100118;-15
2021/09/04 12:57:44;;;;;;;8.32;4.70;;;;;;;;;;2073350;28;100027;-16
2021/09/04 12:59:01;;;;;;;;;;;;;;;;;;2074028;28;100067;-14
2021/09/04 13:00:06;;;;;;;9.18;5.38;;;;;;;;;;2071557;28;99988;-14
2021/09/04 13:01:08;;;;;;;6.65;5.20;;;;;;;;;;2073907;28;100114;-17
2021/09/04 13:02:10;;;;;;;7.47;4.88;;;;;;;;;;2074212;27;100101;-17
2021/09/04 13:03:10;;;;;;;10.15;5.03;;;;;;;;;;2072324;28;99907;-17
2021/09/04 13:04:11;;;;;;;;;;;;;;;;;;2077313;28;99904;-15
2021/09/04 13:05:14;;;;;;;8.48;4.97;;;;;;;;;;2075109;28;100642;-16
2021/09/04 13:06:15;;;;;;;8.60;5.20;;;;;;;;;;2074117;28;100171;-16
2021/09/04 13:07:16;;;;;;;;;;;;;;;;;;2072678;28;102257;-16
2021/09/04 13:08:17;;;;;;;11.10;5.65;;;;;;;;;;2071803;28;100156;-18
2021/09/04 13:09:18;;;;;;;7.88;5.28;;;;;;;;;;2073216;28;100240;-15
2021/09/04 13:10:20;;;;;;;;;;;;;;;;;;2077340;28;101619;-18
2021/09/04 13:11:22;;;;;;;8.23;4.80;;;;;;;;;;2073279;28;100500;-16
2021/09/04 13:12:23;;;;;;;7.35;5.30;;;;;;;;;;2065666;28;100057;-17
2021/09/04 13:13:24;;;;;;;;;;;;;;;;;;2065674;28;100028;-16
2021/09/04 13:14:25;;;;;;;9.52;5.05;;;;;;;;;;2074999;28;100133;-16
2021/09/04 13:15:26;;;;;;;;;;;;;;;;;;2073220;28;100317;-16
2021/09/04 13:16:29;;;;;;;7.63;4.80;;;;;;;;;;2075866;28;100067;-15
2021/09/04 13:17:30;;;;;;;7.13;5.00;;;;;;;;;;2071564;28;100069;-15
2021/09/04 13:18:31;;;;;;;7.35;5.03;;;;;;;;;;2076426;28;99953;-16
2021/09/04 13:19:32;;;;;;;6.72;4.95;;;;;;;;;;2070741;28;100156;-14
2021/09/04 13:20:32;;;;;;;;;;;;;;;;;;2073013;28;100093;-17
2021/09/04 13:21:33;;;;;;;8.55;5.93;;;;;;;;;;2073519;28;100037;-14
2021/09/04 13:22:38;;;;;;;;;;;;;;;;;;2070778;28;101568;-15
2021/09/04 13:23:39;;;;;;;7.97;5.32;;;;;;;;;;2074137;28;100200;-17
2021/09/04 13:24:41;;;;;;;9.30;5.53;;;;;;;;;;2073565;28;99944;-17
2021/09/04 13:25:42;;;;;;;9.95;5.68;;;;;;;;;;2074197;27;99943;-16
2021/09/04 13:26:43;;;;;;;9.40;5.32;;;;;;;;;;2075684;28;99870;-14
2021/09/04 13:27:45;;;;;;;;;;;;;;;;;;2076977;28;99987;-15
2021/09/04 13:28:45;;;;;;;7.68;5.22;;;;;;;;;;2073821;28;100783;-16
2021/09/04 13:29:46;;;;;;;;;;;;;;;;;;2072608;28;100489;-13
2021/09/04 13:30:47;;;;;;;9.88;6.03;;;;;;;;;;2071944;28;100133;-14
2021/09/04 13:31:49;;;;;;;6.50;5.00;;;;;;;;;;2067430;28;100056;-14
2021/09/04 13:32:50;;;;;;;8.63;5.47;;;;;;;;;;2069692;28;100022;-17
2021/09/04 13:33:51;;;;;;;7.43;5.22;;;;;;;;;;2072124;28;99917;-15
2021/09/04 13:34:52;;;;;;;;;;;;;;;;;;2073365;28;99869;-17
2021/09/04 13:35:53;;;;;;;6.03;4.38;;;;;;;;;;2073286;28;99982;-15
2021/09/04 13:36:54;;;;;;;6.88;5.00;;;;;;;;;;2065227;28;100479;-17
2021/09/04 13:37:55;;;;;;;;;;;;;;;;;;2065223;28;99969;-17
2021/09/04 13:38:55;;;;;;;8.23;5.10;;;;;;;;;;2065012;28;100114;-14
2021/09/04 13:39:57;;;;;;;8.75;5.15;;;;;;;;;;2064743;28;100002;-15
2021/09/04 13:40:57;;;;;;;7.10;5.18;;;;;;;;;;2063836;28;100064;-17
2021/09/04 13:41:58;;;;;;;;;;;;;;;;;;2072767;28;100063;-17
2021/09/04 13:42:59;;;;;;;7.25;5.25;;;;;;;;;;2080509;27;100114;-18
2021/09/04 13:44:00;;;;;;;;;;;;;;;;;;2072866;28;100046;-16
2021/09/04 13:45:01;;;;;;;7.22;4.82;;;;;;;;;;2072436;28;99923;-20
2021/09/04 13:46:02;;;;;;;10.07;5.20;;;;;;;;;;2063619;28;100027;-18
2021/09/04 13:47:03;;;;;;;;;;;;;;;;;;2074187;28;100000;-16
2021/09/04 13:48:04;;;;;;;6.53;4.63;;;;;;;;;;2074287;28;99834;-18
2021/09/04 13:49:06;;;;;;;10.43;5.32;;;;;;;;;;2062117;28;101630;-16
2021/09/04 13:50:07;;;;;;;7.40;5.20;;;;;;;;;;2049464;28;100091;-17
2021/09/04 13:51:08;;;;;;;9.02;4.95;;;;;;;;;;2073763;28;100257;-17
2021/09/04 13:52:09;;;;;;;7.32;4.72;;;;;;;;;;2082109;28;100188;-17
2021/09/04 13:53:10;;;;;;;;;;;;;;;;;;2074993;28;100196;-16
2021/09/04 13:54:11;;;;;;;8.07;5.13;;;;;;;;;;2072400;28;100025;-17
2021/09/04 13:55:12;;;;;;;8.25;5.20;;;;;;;;;;2065438;28;99897;-17
2021/09/04 13:56:13;;;;;;;;;;;;;;;;;;2066030;28;99908;-16
2021/09/04 13:57:13;;;;;;;7.65;4.72;;;;;;;;;;2066504;28;99825;-15
2021/09/04 13:58:14;;;;;;;;;;;;;;;;;;2085873;27;99977;-17
2021/09/04 13:59:15;;;;;;;7.47;5.13;;;;;;;;;;2082540;28;99971;-18
2021/09/04 14:00:17;;;;;;;8.48;4.82;;;;;;;;;;2082283;27;100238;-17
2021/09/04 14:01:19;;;;;;;10.15;5.38;;;;;;;;;;2090482;27;99984;-18
2021/09/04 14:02:20;;;;;;;8.50;5.63;;;;;;;;;;2074034;28;100381;-15
2021/09/04 14:03:21;;;;;;;7.97;5.13;;;;;;;;;;2074623;28;99928;-18
2021/09/04 14:04:21;;;;;;;;;;;;;;;;;;2082571;28;99781;-18
2021/09/04 14:05:22;;;;;;;8.13;4.95;;;;;;;;;;2082264;28;100033;-18
2021/09/04 14:06:23;;;;;;;;;;;;;;;;;;2075063;28;99868;-17
2021/09/04 14:07:24;;;;;;;7.13;4.80;;;;;;;;;;2074592;28;100041;-18
2021/09/04 14:08:25;;;;;;;;;;;;;;;;;;2074882;28;100019;-16
2021/09/04 14:09:26;;;;;;;8.23;4.97;;;;;;;;;;2074985;28;100163;-16
2021/09/04 14:10:27;;;;;;;7.30;4.85;;;;;;;;;;2074297;28;100117;-16
2021/09/04 14:11:28;;;;;;;;;;;;;;;;;;2075204;28;99851;-18
2021/09/04 14:12:29;;;;;;;8.43;5.40;;;;;;;;;;2074442;28;100050;-16
2021/09/04 14:13:30;;;;;;;;;;;;;;;;;;2075338;28;99920;-18
2021/09/04 14:14:32;;;;;;;8.82;5.22;;;;;;;;;;2074378;28;99836;-15
2021/09/04 14:15:32;;;;;;;6.95;5.07;;;;;;;;;;2074478;28;99952;-17
2021/09/04 14:16:34;;;;;;;9.60;5.00;;;;;;;;;;2074626;28;100234;-16
2021/09/04 14:17:36;;;;;;;9.23;4.88;;;;;;;;;;2074560;28;100038;-16
2021/09/04 14:18:37;;;;;;;9.90;5.38;;;;;;;;;;2074785;28;100083;-16
2021/09/04 14:19:38;;;;;;;;;;;;;;;;;;2074039;28;100017;-17
2021/09/04 14:20:39;;;;;;;6.50;4.75;;;;;;;;;;2074049;28;100212;-16
2021/09/04 14:21:39;;;;;;;6.95;5.13;;;;;;;;;;2074535;28;100135;-17
2021/09/04 14:22:40;;;;;;;;;;;;;;;;;;2075045;28;99903;-15
2021/09/04 14:23:41;;;;;;;7.13;5.03;;;;;;;;;;2074458;28;99888;-18
2021/09/04 14:24:42;;;;;;;;;;;;;;;;;;2075073;28;100058;-17
2021/09/04 14:25:43;;;;;;;8.57;5.05;;;;;;;;;;2073547;28;99902;-17
2021/09/04 14:26:44;;;;;;;8.00;5.30;;;;;;;;;;2073943;28;99855;-16
2021/09/04 14:27:45;;;;;;;;;;;;;;;;;;2075055;28;100013;-17
2021/09/04 14:28:46;;;;;;;7.50;4.75;;;;;;;;;;2074834;28;99950;-16
2021/09/04 14:29:46;;;;;;;;;;;;;;;;;;2074452;28;100193;-16
2021/09/04 14:30:47;;;;;;;6.78;4.57;;;;;;;;;;2073924;28;100392;-16
2021/09/04 14:31:48;;;;;;;6.85;4.97;;;;;;;;;;2099184;27;99980;-18
2021/09/04 14:32:49;;;;;;;8.00;5.03;;;;;;;;;;2098575;27;100618;-18
2021/09/04 14:33:50;;;;;;;7.10;4.78;;;;;;;;;;2073657;28;100335;-18
2021/09/04 14:34:51;;;;;;;9.52;4.75;;;;;;;;;;2073532;28;99931;-17
2021/09/04 14:35:53;;;;;;;9.10;4.85;;;;;;;;;;2074258;28;99876;-18
2021/09/04 14:36:54;;;;;;;6.88;5.43;;;;;;;;;;2074361;28;99919;-15
2021/09/04 14:37:58;;;;;;;;;;;;;;;;;;2074527;28;100100;-17
2021/09/04 14:38:59;;;;;;;8.23;5.00;;;;;;;;;;2074703;28;99987;-16
2021/09/04 14:40:00;;;;;;;;;;;;;;;;;;2074454;28;99919;-17
2021/09/04 14:41:01;;;;;;;8.25;4.47;;;;;;;;;;2074344;28;100090;-18
2021/09/04 14:42:05;;;;;;;10.32;4.82;;;;;;;;;;2073933;28;100063;-16
2021/09/04 14:43:06;;;;;;;6.63;5.15;;;;;;;;;;2066083;28;100339;-16
2021/09/04 14:44:07;;;;;;;6.93;4.50;;;;;;;;;;2073259;28;100198;-16
2021/09/04 14:45:08;;;;;;;7.90;5.22;;;;;;;;;;2074046;28;99995;-18
2021/09/04 14:46:09;;;;;;;7.97;4.65;;;;;;;;;;2074148;28;100044;-17
2021/09/04 14:47:10;;;;;;;10.15;5.00;;;;;;;;;;2073788;28;99809;-16
2021/09/04 14:48:11;;;;;;;;;;;;;;;;;;2073786;28;100351;-16
2021/09/04 14:49:12;;;;;;;7.38;4.60;;;;;;;;;;2082172;28;99855;-16
2021/09/04 14:50:14;;;;;;;7.40;4.47;;;;;;;;;;2073986;28;100118;-18
2021/09/04 14:51:15;;;;;;;6.13;5.07;;;;;;;;;;2065262;28;100140;-17
2021/09/04 14:52:17;;;;;;;9.05;5.00;;;;;;;;;;2065438;28;100256;-16
2021/09/04 14:53:18;;;;;;;8.45;4.85;;;;;;;;;;2073920;28;100077;-18
2021/09/04 14:54:18;;;;;;;;;;;;;;;;;;2074269;28;100070;-17
2021/09/04 14:55:22;;;;;;;5.97;4.97;;;;;;;;;;2074132;28;100077;-18
2021/09/04 14:56:23;;;;;;;7.70;4.82;;;;;;;;;;2074452;28;100044;-16
2021/09/04 14:57:23;;;;;;;;;;;;;;;;;;2074896;28;99796;-24
2021/09/04 14:58:24;;;;;;;9.23;5.15;;;;;;;;;;2074245;28;99958;-18
2021/09/04 14:59:25;;;;;;;6.97;4.40;;;;;;;;;;2074269;28;99938;-16
2021/09/04 15:00:26;;;;;;;10.55;5.22;;;;;;;;;;2074105;28;101438;-16
2021/09/04 15:01:27;;;;;;;8.43;4.50;;;;;;;;;;2074339;28;100035;-17
2021/09/04 15:02:29;;;;;;;6.95;4.82;;;;;;;;;;2073610;28;99992;-16
2021/09/04 15:03:30;;;;;;;;;;;;;;;;;;2074445;28;99984;-18
2021/09/04 15:04:31;;;;;;;6.25;4.45;;;;;;;;;;2071624;28;100574;-18
2021/09/04 15:05:32;;;;;;;7.82;4.68;;;;;;;;;;2073040;28;99894;-17
2021/09/04 15:06:32;;;;;;;;;;;;;;;;;;2067930;28;99970;-15
2021/09/04 15:07:33;;;;;;;8.38;4.97;;;;;;;;;;2065586;28;100262;-18
2021/09/04 15:08:34;;;;;;;;;;;;;;;;;;2064810;28;100277;-15
2021/09/04 15:09:35;;;;;;;9.25;5.30;;;;;;;;;;2064817;28;100121;-18
2021/09/04 15:10:36;;;;;;;7.32;4.85;;;;;;;;;;2070278;28;100191;-15
2021/09/04 15:11:37;;;;;;;;;;;;;;;;;;2073505;28;100200;-16
2021/09/04 15:12:38;;;;;;;9.70;4.75;;;;;;;;;;2068436;28;99908;-17
2021/09/04 15:13:39;;;;;;;8.70;5.07;;;;;;;;;;2084624;27;100708;-16
2021/09/04 15:14:41;;;;;;;6.78;4.28;;;;;;;;;;2072812;28;100141;-17
2021/09/04 15:15:42;;;;;;;;;;;;;;;;;;2064923;28;100141;-16
2021/09/04 15:16:43;;;;;;;6.75;4.82;;;;;;;;;;2073105;28;100556;-16
2021/09/04 15:17:44;;;;;;;8.02;4.72;;;;;;;;;;2073374;28;100134;-16
2021/09/04 15:18:44;;;;;;;;;;;;;;;;;;2074058;28;100010;-16
2021/09/04 15:19:45;;;;;;;7.68;5.20;;;;;;;;;;2074107;28;99991;-17
2021/09/04 15:20:46;;;;;;;5.93;4.78;;;;;;;;;;2074262;28;99908;-16
2021/09/04 15:21:49;;;;;;;8.93;4.65;;;;;;;;;;2073502;28;100259;-17
2021/09/04 15:22:50;;;;;;;9.35;4.80;;;;;;;;;;2073875;28;99921;-18
2021/09/04 15:23:52;;;;;;;;;;;;;;;;;;2074496;28;99799;-17
2021/09/04 15:24:53;;;;;;;6.18;4.40;;;;;;;;;;2074122;28;99825;-18